sensor_id;sensor_type;location;lat;lon;timestamp;P1;durP1;ratioP1;P2;durP2;ratioP2
9559;SDS011;4818;50.860;4.648;2022-12-18T00:01:31;49.50;;;19.08;;
9559;SDS011;4818;50.860;4.648;2022-12-18T00:04:01;41.42;;;17.95;;
9559;SDS011;4818;50.860;4.648;2022-12-18T00:06:28;45.75;;;17.75;;
9559;SDS011;4818;50.860;4.648;2022-12-18T00:08:55;45.92;;;18.90;;
9559;SDS011;4818;50.860;4.648;2022-12-18T00:11:23;50.75;;;20.25;;
9559;SDS011;4818;50.860;4.648;2022-12-18T00:13:49;50.95;;;18.98;;
9559;SDS011;4818;50.860;4.648;2022-12-18T00:16:16;48.83;;;18.90;;
9559;SDS011;4818;50.860;4.648;2022-12-18T00:18:45;47.38;;;18.95;;
9559;SDS011;4818;50.860;4.648;2022-12-18T00:21:12;46.92;;;18.60;;
9559;SDS011;4818;50.860;4.648;2022-12-18T00:23:39;52.38;;;20.27;;
9559;SDS011;4818;50.860;4.648;2022-12-18T00:26:07;50.55;;;20.60;;
9559;SDS011;4818;50.860;4.648;2022-12-18T00:28:35;48.75;;;20.00;;
9559;SDS011;4818;50.860;4.648;2022-12-18T00:31:05;43.03;;;19.20;;
9559;SDS011;4818;50.860;4.648;2022-12-18T00:33:32;50.25;;;20.40;;
9559;SDS011;4818;50.860;4.648;2022-12-18T00:36:02;44.40;;;20.05;;
9559;SDS011;4818;50.860;4.648;2022-12-18T00:38:29;47.83;;;18.38;;
9559;SDS011;4818;50.860;4.648;2022-12-18T00:40:55;49.13;;;19.13;;
9559;SDS011;4818;50.860;4.648;2022-12-18T00:43:21;45.42;;;19.55;;
9559;SDS011;4818;50.860;4.648;2022-12-18T00:45:47;41.90;;;17.58;;
9559;SDS011;4818;50.860;4.648;2022-12-18T00:48:13;45.13;;;17.80;;
9559;SDS011;4818;50.860;4.648;2022-12-18T00:50:39;44.55;;;17.88;;
9559;SDS011;4818;50.860;4.648;2022-12-18T00:53:05;37.85;;;16.08;;
9559;SDS011;4818;50.860;4.648;2022-12-18T00:55:31;51.65;;;21.00;;
9559;SDS011;4818;50.860;4.648;2022-12-18T00:57:57;45.33;;;18.67;;
9559;SDS011;4818;50.860;4.648;2022-12-18T01:00:23;45.53;;;17.88;;
9559;SDS011;4818;50.860;4.648;2022-12-18T01:02:49;48.95;;;19.80;;
9559;SDS011;4818;50.860;4.648;2022-12-18T01:05:16;43.35;;;17.73;;
9559;SDS011;4818;50.860;4.648;2022-12-18T01:07:42;44.97;;;17.30;;
9559;SDS011;4818;50.860;4.648;2022-12-18T01:10:09;39.08;;;17.35;;
9559;SDS011;4818;50.860;4.648;2022-12-18T01:12:35;49.80;;;17.00;;
9559;SDS011;4818;50.860;4.648;2022-12-18T01:15:02;47.17;;;19.67;;
9559;SDS011;4818;50.860;4.648;2022-12-18T01:17:28;46.35;;;18.95;;
9559;SDS011;4818;50.860;4.648;2022-12-18T01:19:54;48.72;;;19.73;;
9559;SDS011;4818;50.860;4.648;2022-12-18T01:22:20;46.13;;;18.65;;
9559;SDS011;4818;50.860;4.648;2022-12-18T01:24:46;41.35;;;17.40;;
9559;SDS011;4818;50.860;4.648;2022-12-18T01:27:12;43.53;;;17.13;;
9559;SDS011;4818;50.860;4.648;2022-12-18T01:29:39;49.67;;;19.42;;
9559;SDS011;4818;50.860;4.648;2022-12-18T01:32:05;45.85;;;19.05;;
9559;SDS011;4818;50.860;4.648;2022-12-18T01:34:31;43.08;;;17.27;;
9559;SDS011;4818;50.860;4.648;2022-12-18T01:36:57;40.47;;;17.58;;
9559;SDS011;4818;50.860;4.648;2022-12-18T01:39:23;49.70;;;19.73;;
9559;SDS011;4818;50.860;4.648;2022-12-18T01:41:49;44.80;;;17.98;;
9559;SDS011;4818;50.860;4.648;2022-12-18T01:47:18;42.83;;;17.17;;
9559;SDS011;4818;50.860;4.648;2022-12-18T01:49:44;43.80;;;17.02;;
9559;SDS011;4818;50.860;4.648;2022-12-18T01:52:10;44.30;;;17.13;;
9559;SDS011;4818;50.860;4.648;2022-12-18T01:54:36;45.10;;;18.70;;
9559;SDS011;4818;50.860;4.648;2022-12-18T01:57:02;39.67;;;16.55;;
9559;SDS011;4818;50.860;4.648;2022-12-18T01:59:29;40.50;;;16.88;;
9559;SDS011;4818;50.860;4.648;2022-12-18T02:01:56;38.85;;;15.43;;
9559;SDS011;4818;50.860;4.648;2022-12-18T02:04:22;41.58;;;16.77;;
9559;SDS011;4818;50.860;4.648;2022-12-18T02:06:51;35.70;;;14.98;;
9559;SDS011;4818;50.860;4.648;2022-12-18T02:09:19;43.70;;;17.38;;
9559;SDS011;4818;50.860;4.648;2022-12-18T02:11:51;35.50;;;14.87;;
9559;SDS011;4818;50.860;4.648;2022-12-18T02:16:51;35.92;;;15.98;;
9559;SDS011;4818;50.860;4.648;2022-12-18T02:27:15;40.08;;;15.60;;
9559;SDS011;4818;50.860;4.648;2022-12-18T02:29:43;36.45;;;16.17;;
9559;SDS011;4818;50.860;4.648;2022-12-18T02:32:12;36.38;;;14.50;;
9559;SDS011;4818;50.860;4.648;2022-12-18T02:34:40;39.20;;;14.75;;
9559;SDS011;4818;50.860;4.648;2022-12-18T02:37:08;34.20;;;15.07;;
9559;SDS011;4818;50.860;4.648;2022-12-18T02:39:35;35.30;;;14.98;;
9559;SDS011;4818;50.860;4.648;2022-12-18T02:42:03;37.40;;;13.82;;
9559;SDS011;4818;50.860;4.648;2022-12-18T02:44:33;37.63;;;14.90;;
9559;SDS011;4818;50.860;4.648;2022-12-18T02:46:59;36.92;;;14.95;;
9559;SDS011;4818;50.860;4.648;2022-12-18T02:49:36;39.38;;;17.02;;
9559;SDS011;4818;50.860;4.648;2022-12-18T03:05:14;39.25;;;14.30;;
9559;SDS011;4818;50.860;4.648;2022-12-18T03:07:52;41.15;;;14.57;;
9559;SDS011;4818;50.860;4.648;2022-12-18T03:10:21;32.22;;;10.63;;
9559;SDS011;4818;50.860;4.648;2022-12-18T03:12:51;39.35;;;14.63;;
9559;SDS011;4818;50.860;4.648;2022-12-18T03:17:45;30.80;;;12.57;;
9559;SDS011;4818;50.860;4.648;2022-12-18T03:20:18;39.20;;;15.77;;
9559;SDS011;4818;50.860;4.648;2022-12-18T03:22:46;35.58;;;14.52;;
9559;SDS011;4818;50.860;4.648;2022-12-18T03:25:13;39.40;;;15.02;;
9559;SDS011;4818;50.860;4.648;2022-12-18T03:27:42;42.38;;;16.42;;
9559;SDS011;4818;50.860;4.648;2022-12-18T03:30:11;42.00;;;16.02;;
9559;SDS011;4818;50.860;4.648;2022-12-18T03:35:06;35.90;;;14.93;;
9559;SDS011;4818;50.860;4.648;2022-12-18T03:37:34;37.70;;;14.13;;
9559;SDS011;4818;50.860;4.648;2022-12-18T03:40:00;34.00;;;13.55;;
9559;SDS011;4818;50.860;4.648;2022-12-18T03:42:31;33.75;;;13.90;;
9559;SDS011;4818;50.860;4.648;2022-12-18T03:50:35;37.90;;;14.20;;
9559;SDS011;4818;50.860;4.648;2022-12-18T03:55:27;44.97;;;16.80;;
9559;SDS011;4818;50.860;4.648;2022-12-18T03:57:56;46.83;;;17.25;;
9559;SDS011;4818;50.860;4.648;2022-12-18T04:00:22;45.17;;;17.42;;
9559;SDS011;4818;50.860;4.648;2022-12-18T04:02:50;48.17;;;18.17;;
9559;SDS011;4818;50.860;4.648;2022-12-18T04:05:17;50.78;;;18.23;;
9559;SDS011;4818;50.860;4.648;2022-12-18T04:07:45;46.33;;;18.23;;
9559;SDS011;4818;50.860;4.648;2022-12-18T04:10:12;46.57;;;19.57;;
9559;SDS011;4818;50.860;4.648;2022-12-18T04:12:40;40.50;;;16.70;;
9559;SDS011;4818;50.860;4.648;2022-12-18T04:15:06;38.20;;;16.42;;
9559;SDS011;4818;50.860;4.648;2022-12-18T04:17:33;35.05;;;14.88;;
9559;SDS011;4818;50.860;4.648;2022-12-18T04:19:59;47.13;;;16.25;;
9559;SDS011;4818;50.860;4.648;2022-12-18T04:22:25;39.67;;;16.20;;
9559;SDS011;4818;50.860;4.648;2022-12-18T04:24:51;39.45;;;17.23;;
9559;SDS011;4818;50.860;4.648;2022-12-18T04:27:17;44.63;;;17.00;;
9559;SDS011;4818;50.860;4.648;2022-12-18T04:29:43;43.65;;;16.38;;
9559;SDS011;4818;50.860;4.648;2022-12-18T04:32:10;36.15;;;15.35;;
9559;SDS011;4818;50.860;4.648;2022-12-18T04:34:36;37.53;;;16.23;;
9559;SDS011;4818;50.860;4.648;2022-12-18T04:37:02;35.60;;;14.35;;
9559;SDS011;4818;50.860;4.648;2022-12-18T04:39:28;40.60;;;16.98;;
9559;SDS011;4818;50.860;4.648;2022-12-18T04:41:54;37.03;;;14.93;;
9559;SDS011;4818;50.860;4.648;2022-12-18T04:44:20;37.50;;;15.50;;
9559;SDS011;4818;50.860;4.648;2022-12-18T04:46:47;39.88;;;15.95;;
9559;SDS011;4818;50.860;4.648;2022-12-18T04:49:13;35.00;;;14.93;;
9559;SDS011;4818;50.860;4.648;2022-12-18T04:51:39;44.05;;;16.77;;
9559;SDS011;4818;50.860;4.648;2022-12-18T04:54:05;38.72;;;15.20;;
9559;SDS011;4818;50.860;4.648;2022-12-18T04:56:31;39.80;;;15.93;;
9559;SDS011;4818;50.860;4.648;2022-12-18T04:58:58;38.63;;;15.23;;
9559;SDS011;4818;50.860;4.648;2022-12-18T05:01:24;37.15;;;15.35;;
9559;SDS011;4818;50.860;4.648;2022-12-18T05:03:50;40.53;;;16.52;;
9559;SDS011;4818;50.860;4.648;2022-12-18T05:06:17;34.53;;;14.18;;
9559;SDS011;4818;50.860;4.648;2022-12-18T05:08:43;31.83;;;14.40;;
9559;SDS011;4818;50.860;4.648;2022-12-18T05:11:10;35.38;;;14.52;;
9559;SDS011;4818;50.860;4.648;2022-12-18T05:13:36;37.00;;;13.75;;
9559;SDS011;4818;50.860;4.648;2022-12-18T05:16:03;31.13;;;13.40;;
9559;SDS011;4818;50.860;4.648;2022-12-18T05:18:29;30.73;;;12.75;;
9559;SDS011;4818;50.860;4.648;2022-12-18T05:20:55;37.38;;;14.82;;
9559;SDS011;4818;50.860;4.648;2022-12-18T05:23:22;34.72;;;13.63;;
9559;SDS011;4818;50.860;4.648;2022-12-18T05:28:18;33.90;;;14.68;;
9559;SDS011;4818;50.860;4.648;2022-12-18T05:30:47;35.90;;;15.10;;
9559;SDS011;4818;50.860;4.648;2022-12-18T05:33:14;38.28;;;14.65;;
9559;SDS011;4818;50.860;4.648;2022-12-18T05:35:40;34.17;;;14.60;;
9559;SDS011;4818;50.860;4.648;2022-12-18T05:38:06;36.40;;;16.58;;
9559;SDS011;4818;50.860;4.648;2022-12-18T05:40:32;38.80;;;15.38;;
9559;SDS011;4818;50.860;4.648;2022-12-18T05:42:58;38.28;;;13.73;;
9559;SDS011;4818;50.860;4.648;2022-12-18T05:45:24;40.70;;;14.00;;
9559;SDS011;4818;50.860;4.648;2022-12-18T05:47:50;38.42;;;14.75;;
9559;SDS011;4818;50.860;4.648;2022-12-18T05:50:16;36.20;;;14.07;;
9559;SDS011;4818;50.860;4.648;2022-12-18T05:52:42;37.15;;;16.48;;
9559;SDS011;4818;50.860;4.648;2022-12-18T05:55:08;43.65;;;16.23;;
9559;SDS011;4818;50.860;4.648;2022-12-18T05:57:35;33.25;;;15.05;;
9559;SDS011;4818;50.860;4.648;2022-12-18T06:00:01;41.30;;;14.65;;
9559;SDS011;4818;50.860;4.648;2022-12-18T06:02:27;35.97;;;14.57;;
9559;SDS011;4818;50.860;4.648;2022-12-18T06:04:53;35.35;;;14.35;;
9559;SDS011;4818;50.860;4.648;2022-12-18T06:07:20;36.30;;;14.75;;
9559;SDS011;4818;50.860;4.648;2022-12-18T06:09:46;36.72;;;13.77;;
9559;SDS011;4818;50.860;4.648;2022-12-18T06:12:12;40.10;;;15.77;;
9559;SDS011;4818;50.860;4.648;2022-12-18T06:14:38;35.28;;;15.57;;
9559;SDS011;4818;50.860;4.648;2022-12-18T06:17:04;36.15;;;14.80;;
9559;SDS011;4818;50.860;4.648;2022-12-18T06:19:30;33.22;;;13.93;;
9559;SDS011;4818;50.860;4.648;2022-12-18T06:21:56;36.42;;;13.70;;
9559;SDS011;4818;50.860;4.648;2022-12-18T06:24:24;34.10;;;13.88;;
9559;SDS011;4818;50.860;4.648;2022-12-18T06:26:50;31.20;;;13.77;;
9559;SDS011;4818;50.860;4.648;2022-12-18T06:29:16;30.48;;;12.90;;
9559;SDS011;4818;50.860;4.648;2022-12-18T06:31:42;34.85;;;13.48;;
9559;SDS011;4818;50.860;4.648;2022-12-18T06:34:08;39.78;;;15.13;;
9559;SDS011;4818;50.860;4.648;2022-12-18T06:36:34;31.55;;;12.88;;
9559;SDS011;4818;50.860;4.648;2022-12-18T06:39:00;35.45;;;13.35;;
9559;SDS011;4818;50.860;4.648;2022-12-18T06:41:26;33.63;;;13.20;;
9559;SDS011;4818;50.860;4.648;2022-12-18T06:43:52;30.80;;;13.07;;
9559;SDS011;4818;50.860;4.648;2022-12-18T06:46:18;37.70;;;15.18;;
9559;SDS011;4818;50.860;4.648;2022-12-18T06:48:48;37.13;;;14.73;;
9559;SDS011;4818;50.860;4.648;2022-12-18T06:51:16;32.63;;;14.30;;
9559;SDS011;4818;50.860;4.648;2022-12-18T06:53:42;38.78;;;14.57;;
9559;SDS011;4818;50.860;4.648;2022-12-18T06:56:08;35.45;;;14.40;;
9559;SDS011;4818;50.860;4.648;2022-12-18T06:58:34;41.15;;;15.00;;
9559;SDS011;4818;50.860;4.648;2022-12-18T07:01:03;36.15;;;14.85;;
9559;SDS011;4818;50.860;4.648;2022-12-18T07:03:30;35.67;;;15.02;;
9559;SDS011;4818;50.860;4.648;2022-12-18T07:05:57;40.45;;;15.45;;
9559;SDS011;4818;50.860;4.648;2022-12-18T07:08:23;34.42;;;13.77;;
9559;SDS011;4818;50.860;4.648;2022-12-18T07:10:49;35.42;;;14.18;;
9559;SDS011;4818;50.860;4.648;2022-12-18T07:13:15;36.30;;;15.13;;
9559;SDS011;4818;50.860;4.648;2022-12-18T07:15:42;38.67;;;15.05;;
9559;SDS011;4818;50.860;4.648;2022-12-18T07:18:08;38.25;;;14.40;;
9559;SDS011;4818;50.860;4.648;2022-12-18T07:20:34;37.60;;;15.27;;
9559;SDS011;4818;50.860;4.648;2022-12-18T07:23:04;41.10;;;15.98;;
9559;SDS011;4818;50.860;4.648;2022-12-18T07:25:33;37.95;;;14.88;;
9559;SDS011;4818;50.860;4.648;2022-12-18T07:28:00;31.70;;;13.45;;
9559;SDS011;4818;50.860;4.648;2022-12-18T07:30:26;37.55;;;15.55;;
9559;SDS011;4818;50.860;4.648;2022-12-18T07:32:53;40.50;;;16.67;;
9559;SDS011;4818;50.860;4.648;2022-12-18T07:35:19;37.55;;;15.10;;
9559;SDS011;4818;50.860;4.648;2022-12-18T07:37:45;38.75;;;15.27;;
9559;SDS011;4818;50.860;4.648;2022-12-18T07:40:12;26.92;;;13.05;;
9559;SDS011;4818;50.860;4.648;2022-12-18T07:42:38;36.13;;;14.18;;
9559;SDS011;4818;50.860;4.648;2022-12-18T07:45:04;26.73;;;12.50;;
9559;SDS011;4818;50.860;4.648;2022-12-18T07:47:31;29.95;;;12.20;;
9559;SDS011;4818;50.860;4.648;2022-12-18T07:50:02;37.20;;;14.27;;
9559;SDS011;4818;50.860;4.648;2022-12-18T07:52:28;32.50;;;14.27;;
9559;SDS011;4818;50.860;4.648;2022-12-18T07:54:56;36.55;;;13.43;;
9559;SDS011;4818;50.860;4.648;2022-12-18T07:57:22;38.67;;;14.35;;
9559;SDS011;4818;50.860;4.648;2022-12-18T07:59:48;33.00;;;13.48;;
9559;SDS011;4818;50.860;4.648;2022-12-18T08:02:14;39.63;;;13.38;;
9559;SDS011;4818;50.860;4.648;2022-12-18T08:04:40;42.80;;;15.05;;
9559;SDS011;4818;50.860;4.648;2022-12-18T08:07:06;68.97;;;30.02;;
9559;SDS011;4818;50.860;4.648;2022-12-18T08:09:33;42.47;;;18.48;;
9559;SDS011;4818;50.860;4.648;2022-12-18T08:11:59;38.72;;;16.25;;
9559;SDS011;4818;50.860;4.648;2022-12-18T08:14:25;37.22;;;14.77;;
9559;SDS011;4818;50.860;4.648;2022-12-18T08:16:51;35.60;;;14.68;;
9559;SDS011;4818;50.860;4.648;2022-12-18T08:19:18;32.40;;;14.35;;
9559;SDS011;4818;50.860;4.648;2022-12-18T08:21:44;31.10;;;14.18;;
9559;SDS011;4818;50.860;4.648;2022-12-18T08:24:11;30.30;;;12.93;;
9559;SDS011;4818;50.860;4.648;2022-12-18T08:26:37;36.17;;;13.65;;
9559;SDS011;4818;50.860;4.648;2022-12-18T08:29:03;34.50;;;12.32;;
9559;SDS011;4818;50.860;4.648;2022-12-18T08:31:29;27.88;;;12.30;;
9559;SDS011;4818;50.860;4.648;2022-12-18T08:33:56;28.05;;;10.07;;
9559;SDS011;4818;50.860;4.648;2022-12-18T08:36:22;25.13;;;9.95;;
9559;SDS011;4818;50.860;4.648;2022-12-18T08:38:49;25.27;;;10.52;;
9559;SDS011;4818;50.860;4.648;2022-12-18T08:41:15;25.35;;;10.23;;
9559;SDS011;4818;50.860;4.648;2022-12-18T08:43:43;21.15;;;10.15;;
9559;SDS011;4818;50.860;4.648;2022-12-18T08:46:30;19.77;;;8.70;;
9559;SDS011;4818;50.860;4.648;2022-12-18T08:48:57;25.73;;;11.15;;
9559;SDS011;4818;50.860;4.648;2022-12-18T08:51:24;24.85;;;10.60;;
9559;SDS011;4818;50.860;4.648;2022-12-18T08:53:50;24.67;;;11.32;;
9559;SDS011;4818;50.860;4.648;2022-12-18T08:56:16;25.52;;;11.70;;
9559;SDS011;4818;50.860;4.648;2022-12-18T08:58:42;30.55;;;12.35;;
9559;SDS011;4818;50.860;4.648;2022-12-18T09:01:09;29.30;;;12.65;;
9559;SDS011;4818;50.860;4.648;2022-12-18T09:03:36;30.10;;;11.48;;
9559;SDS011;4818;50.860;4.648;2022-12-18T09:06:02;25.70;;;11.10;;
9559;SDS011;4818;50.860;4.648;2022-12-18T09:08:28;23.83;;;11.65;;
9559;SDS011;4818;50.860;4.648;2022-12-18T09:10:55;24.88;;;11.35;;
9559;SDS011;4818;50.860;4.648;2022-12-18T09:13:21;24.25;;;10.82;;
9559;SDS011;4818;50.860;4.648;2022-12-18T09:15:49;23.98;;;11.13;;
9559;SDS011;4818;50.860;4.648;2022-12-18T09:18:16;22.15;;;11.10;;
9559;SDS011;4818;50.860;4.648;2022-12-18T09:20:43;24.10;;;10.27;;
9559;SDS011;4818;50.860;4.648;2022-12-18T09:23:09;23.00;;;9.45;;
9559;SDS011;4818;50.860;4.648;2022-12-18T09:25:36;17.88;;;9.35;;
9559;SDS011;4818;50.860;4.648;2022-12-18T09:28:04;20.52;;;9.18;;
9559;SDS011;4818;50.860;4.648;2022-12-18T09:30:30;16.52;;;8.73;;
9559;SDS011;4818;50.860;4.648;2022-12-18T09:32:58;18.58;;;9.00;;
9559;SDS011;4818;50.860;4.648;2022-12-18T09:35:24;21.75;;;9.32;;
9559;SDS011;4818;50.860;4.648;2022-12-18T09:37:52;19.20;;;9.35;;
9559;SDS011;4818;50.860;4.648;2022-12-18T09:40:19;16.83;;;8.98;;
9559;SDS011;4818;50.860;4.648;2022-12-18T09:42:48;19.02;;;9.15;;
9559;SDS011;4818;50.860;4.648;2022-12-18T09:45:17;15.32;;;8.73;;
9559;SDS011;4818;50.860;4.648;2022-12-18T09:47:44;20.42;;;8.80;;
9559;SDS011;4818;50.860;4.648;2022-12-18T09:50:22;17.30;;;8.80;;
9559;SDS011;4818;50.860;4.648;2022-12-18T09:52:51;22.02;;;8.65;;
9559;SDS011;4818;50.860;4.648;2022-12-18T09:55:35;22.33;;;10.65;;
9559;SDS011;4818;50.860;4.648;2022-12-18T09:58:07;20.38;;;9.60;;
9559;SDS011;4818;50.860;4.648;2022-12-18T10:00:37;25.88;;;10.90;;
9559;SDS011;4818;50.860;4.648;2022-12-18T10:03:10;17.45;;;8.98;;
9559;SDS011;4818;50.860;4.648;2022-12-18T10:05:40;18.65;;;9.43;;
9559;SDS011;4818;50.860;4.648;2022-12-18T10:08:13;25.27;;;10.77;;
9559;SDS011;4818;50.860;4.648;2022-12-18T10:10:48;18.83;;;9.27;;
9559;SDS011;4818;50.860;4.648;2022-12-18T10:21:28;23.40;;;10.82;;
9559;SDS011;4818;50.860;4.648;2022-12-18T10:26:22;17.45;;;7.72;;
9559;SDS011;4818;50.860;4.648;2022-12-18T10:28:48;18.02;;;8.48;;
9559;SDS011;4818;50.860;4.648;2022-12-18T10:31:16;17.23;;;7.35;;
9559;SDS011;4818;50.860;4.648;2022-12-18T10:33:42;17.00;;;8.73;;
9559;SDS011;4818;50.860;4.648;2022-12-18T10:36:09;17.67;;;6.60;;
9559;SDS011;4818;50.860;4.648;2022-12-18T10:38:35;14.18;;;7.40;;
9559;SDS011;4818;50.860;4.648;2022-12-18T10:45:58;16.08;;;7.43;;
9559;SDS011;4818;50.860;4.648;2022-12-18T10:48:25;14.40;;;7.20;;
9559;SDS011;4818;50.860;4.648;2022-12-18T10:50:52;12.68;;;6.57;;
9559;SDS011;4818;50.860;4.648;2022-12-18T10:53:23;16.35;;;6.68;;
9559;SDS011;4818;50.860;4.648;2022-12-18T10:55:49;14.98;;;6.97;;
9559;SDS011;4818;50.860;4.648;2022-12-18T10:58:21;14.68;;;7.30;;
9559;SDS011;4818;50.860;4.648;2022-12-18T11:01:05;13.93;;;6.55;;
9559;SDS011;4818;50.860;4.648;2022-12-18T11:03:36;15.57;;;7.97;;
9559;SDS011;4818;50.860;4.648;2022-12-18T11:06:03;15.20;;;6.93;;
9559;SDS011;4818;50.860;4.648;2022-12-18T11:08:30;20.67;;;8.07;;
9559;SDS011;4818;50.860;4.648;2022-12-18T11:10:56;28.58;;;15.48;;
9559;SDS011;4818;50.860;4.648;2022-12-18T11:13:23;19.90;;;10.60;;
9559;SDS011;4818;50.860;4.648;2022-12-18T11:15:50;24.13;;;11.18;;
9559;SDS011;4818;50.860;4.648;2022-12-18T11:20:56;24.77;;;13.18;;
9559;SDS011;4818;50.860;4.648;2022-12-18T11:23:23;17.30;;;8.75;;
9559;SDS011;4818;50.860;4.648;2022-12-18T11:25:54;17.17;;;9.10;;
9559;SDS011;4818;50.860;4.648;2022-12-18T11:28:25;15.93;;;7.95;;
9559;SDS011;4818;50.860;4.648;2022-12-18T11:34:00;17.25;;;8.90;;
9559;SDS011;4818;50.860;4.648;2022-12-18T11:36:28;16.92;;;8.43;;
9559;SDS011;4818;50.860;4.648;2022-12-18T11:38:55;17.40;;;9.57;;
9559;SDS011;4818;50.860;4.648;2022-12-18T11:41:27;14.05;;;8.85;;
9559;SDS011;4818;50.860;4.648;2022-12-18T11:49:49;22.60;;;12.32;;
9559;SDS011;4818;50.860;4.648;2022-12-18T11:52:23;18.70;;;10.38;;
9559;SDS011;4818;50.860;4.648;2022-12-18T11:54:55;23.95;;;12.85;;
9559;SDS011;4818;50.860;4.648;2022-12-18T12:00:12;23.42;;;10.50;;
9559;SDS011;4818;50.860;4.648;2022-12-18T12:05:44;17.75;;;8.35;;
9559;SDS011;4818;50.860;4.648;2022-12-18T12:08:21;13.68;;;7.13;;
9559;SDS011;4818;50.860;4.648;2022-12-18T12:13:25;18.63;;;9.98;;
9559;SDS011;4818;50.860;4.648;2022-12-18T12:18:24;15.10;;;7.97;;
9559;SDS011;4818;50.860;4.648;2022-12-18T12:34:25;17.63;;;9.18;;
9559;SDS011;4818;50.860;4.648;2022-12-18T12:39:20;16.83;;;9.27;;
9559;SDS011;4818;50.860;4.648;2022-12-18T12:44:52;22.23;;;11.90;;
9559;SDS011;4818;50.860;4.648;2022-12-18T12:47:21;19.10;;;10.80;;
9559;SDS011;4818;50.860;4.648;2022-12-18T12:49:48;18.73;;;9.32;;
9559;SDS011;4818;50.860;4.648;2022-12-18T12:52:27;18.30;;;8.35;;
9559;SDS011;4818;50.860;4.648;2022-12-18T12:54:56;29.42;;;17.70;;
9559;SDS011;4818;50.860;4.648;2022-12-18T13:04:42;19.40;;;9.85;;
9559;SDS011;4818;50.860;4.648;2022-12-18T13:10:11;18.30;;;9.18;;
9559;SDS011;4818;50.860;4.648;2022-12-18T13:12:24;20.80;;;10.00;;
9559;SDS011;4818;50.860;4.648;2022-12-18T13:15:20;21.13;;;10.38;;
9559;SDS011;4818;50.860;4.648;2022-12-18T13:17:47;20.30;;;9.60;;
9559;SDS011;4818;50.860;4.648;2022-12-18T13:20:13;22.00;;;9.77;;
9559;SDS011;4818;50.860;4.648;2022-12-18T13:22:44;23.67;;;10.85;;
9559;SDS011;4818;50.860;4.648;2022-12-18T13:28:03;19.48;;;9.50;;
9559;SDS011;4818;50.860;4.648;2022-12-18T13:38:25;24.63;;;10.95;;
9559;SDS011;4818;50.860;4.648;2022-12-18T13:41:02;22.10;;;9.85;;
9559;SDS011;4818;50.860;4.648;2022-12-18T13:43:29;21.85;;;10.30;;
9559;SDS011;4818;50.860;4.648;2022-12-18T13:48:41;23.55;;;10.98;;
9559;SDS011;4818;50.860;4.648;2022-12-18T13:51:15;25.63;;;11.15;;
9559;SDS011;4818;50.860;4.648;2022-12-18T13:53:46;24.45;;;10.93;;
9559;SDS011;4818;50.860;4.648;2022-12-18T13:56:24;22.63;;;11.07;;
9559;SDS011;4818;50.860;4.648;2022-12-18T13:59:10;24.58;;;10.48;;
9559;SDS011;4818;50.860;4.648;2022-12-18T14:01:41;23.30;;;11.38;;
9559;SDS011;4818;50.860;4.648;2022-12-18T14:06:55;22.85;;;11.00;;
9559;SDS011;4818;50.860;4.648;2022-12-18T14:09:26;25.70;;;12.05;;
9559;SDS011;4818;50.860;4.648;2022-12-18T14:11:54;21.60;;;10.63;;
9559;SDS011;4818;50.860;4.648;2022-12-18T14:14:42;24.23;;;11.85;;
9559;SDS011;4818;50.860;4.648;2022-12-18T14:17:10;27.30;;;12.63;;
9559;SDS011;4818;50.860;4.648;2022-12-18T14:19:37;26.88;;;12.32;;
9559;SDS011;4818;50.860;4.648;2022-12-18T14:24:32;23.10;;;12.77;;
9559;SDS011;4818;50.860;4.648;2022-12-18T14:26:58;30.33;;;12.82;;
9559;SDS011;4818;50.860;4.648;2022-12-18T14:29:38;26.45;;;12.80;;
9559;SDS011;4818;50.860;4.648;2022-12-18T14:32:13;26.02;;;12.80;;
9559;SDS011;4818;50.860;4.648;2022-12-18T14:34:42;28.98;;;12.98;;
9559;SDS011;4818;50.860;4.648;2022-12-18T14:37:09;26.08;;;12.02;;
9559;SDS011;4818;50.860;4.648;2022-12-18T14:39:36;27.17;;;12.98;;
9559;SDS011;4818;50.860;4.648;2022-12-18T14:42:02;32.40;;;13.95;;
9559;SDS011;4818;50.860;4.648;2022-12-18T14:44:28;26.33;;;12.95;;
9559;SDS011;4818;50.860;4.648;2022-12-18T14:46:55;27.90;;;12.35;;
9559;SDS011;4818;50.860;4.648;2022-12-18T14:49:34;24.80;;;12.18;;
9559;SDS011;4818;50.860;4.648;2022-12-18T14:52:05;26.20;;;11.70;;
9559;SDS011;4818;50.860;4.648;2022-12-18T14:54:32;27.02;;;13.07;;
9559;SDS011;4818;50.860;4.648;2022-12-18T14:57:04;29.55;;;14.23;;
9559;SDS011;4818;50.860;4.648;2022-12-18T14:59:31;30.15;;;12.95;;
9559;SDS011;4818;50.860;4.648;2022-12-18T15:02:04;28.27;;;13.50;;
9559;SDS011;4818;50.860;4.648;2022-12-18T15:04:37;31.10;;;13.00;;
9559;SDS011;4818;50.860;4.648;2022-12-18T15:09:34;27.23;;;12.88;;
9559;SDS011;4818;50.860;4.648;2022-12-18T15:12:00;30.50;;;13.38;;
9559;SDS011;4818;50.860;4.648;2022-12-18T15:19:24;29.42;;;12.63;;
9559;SDS011;4818;50.860;4.648;2022-12-18T15:21:52;28.52;;;13.18;;
9559;SDS011;4818;50.860;4.648;2022-12-18T15:24:18;31.73;;;12.80;;
9559;SDS011;4818;50.860;4.648;2022-12-18T15:26:46;34.97;;;13.65;;
9559;SDS011;4818;50.860;4.648;2022-12-18T15:29:20;29.88;;;13.32;;
9559;SDS011;4818;50.860;4.648;2022-12-18T15:32:05;30.13;;;12.75;;
9559;SDS011;4818;50.860;4.648;2022-12-18T15:34:31;30.42;;;14.10;;
9559;SDS011;4818;50.860;4.648;2022-12-18T15:36:59;31.75;;;13.23;;
9559;SDS011;4818;50.860;4.648;2022-12-18T15:39:25;25.50;;;12.80;;
9559;SDS011;4818;50.860;4.648;2022-12-18T15:41:51;27.35;;;13.13;;
9559;SDS011;4818;50.860;4.648;2022-12-18T15:44:36;27.55;;;12.65;;
9559;SDS011;4818;50.860;4.648;2022-12-18T15:47:02;27.98;;;13.20;;
9559;SDS011;4818;50.860;4.648;2022-12-18T15:49:28;30.80;;;13.57;;
9559;SDS011;4818;50.860;4.648;2022-12-18T15:51:56;28.42;;;12.52;;
9559;SDS011;4818;50.860;4.648;2022-12-18T15:54:23;28.63;;;13.07;;
9559;SDS011;4818;50.860;4.648;2022-12-18T15:57:11;31.40;;;13.73;;
9559;SDS011;4818;50.860;4.648;2022-12-18T15:59:56;27.98;;;12.27;;
9559;SDS011;4818;50.860;4.648;2022-12-18T16:02:23;28.17;;;12.75;;
9559;SDS011;4818;50.860;4.648;2022-12-18T16:04:50;27.30;;;13.25;;
9559;SDS011;4818;50.860;4.648;2022-12-18T16:07:17;26.00;;;11.70;;
9559;SDS011;4818;50.860;4.648;2022-12-18T16:09:43;28.13;;;12.52;;
9559;SDS011;4818;50.860;4.648;2022-12-18T16:12:17;27.98;;;12.85;;
9559;SDS011;4818;50.860;4.648;2022-12-18T16:14:43;27.10;;;12.38;;
9559;SDS011;4818;50.860;4.648;2022-12-18T16:17:10;29.90;;;13.68;;
9559;SDS011;4818;50.860;4.648;2022-12-18T16:19:36;35.05;;;12.77;;
9559;SDS011;4818;50.860;4.648;2022-12-18T16:22:02;29.08;;;13.23;;
9559;SDS011;4818;50.860;4.648;2022-12-18T16:24:30;29.77;;;13.13;;
9559;SDS011;4818;50.860;4.648;2022-12-18T16:26:57;32.65;;;13.32;;
9559;SDS011;4818;50.860;4.648;2022-12-18T16:29:24;30.65;;;12.60;;
9559;SDS011;4818;50.860;4.648;2022-12-18T16:31:56;28.10;;;12.00;;
9559;SDS011;4818;50.860;4.648;2022-12-18T16:34:23;28.77;;;11.70;;
9559;SDS011;4818;50.860;4.648;2022-12-18T16:36:52;28.13;;;12.55;;
9559;SDS011;4818;50.860;4.648;2022-12-18T16:39:21;26.73;;;12.75;;
9559;SDS011;4818;50.860;4.648;2022-12-18T16:41:47;31.25;;;13.75;;
9559;SDS011;4818;50.860;4.648;2022-12-18T16:44:14;26.58;;;12.25;;
9559;SDS011;4818;50.860;4.648;2022-12-18T16:46:40;36.55;;;14.38;;
9559;SDS011;4818;50.860;4.648;2022-12-18T16:49:16;29.20;;;12.23;;
9559;SDS011;4818;50.860;4.648;2022-12-18T16:54:08;30.80;;;12.57;;
9559;SDS011;4818;50.860;4.648;2022-12-18T16:56:35;30.17;;;12.68;;
9559;SDS011;4818;50.860;4.648;2022-12-18T16:59:02;31.75;;;12.52;;
9559;SDS011;4818;50.860;4.648;2022-12-18T17:01:28;38.15;;;12.98;;
9559;SDS011;4818;50.860;4.648;2022-12-18T17:03:59;28.35;;;12.55;;
9559;SDS011;4818;50.860;4.648;2022-12-18T17:06:26;32.30;;;13.32;;
9559;SDS011;4818;50.860;4.648;2022-12-18T17:08:58;25.77;;;11.55;;
9559;SDS011;4818;50.860;4.648;2022-12-18T17:11:25;27.48;;;11.93;;
9559;SDS011;4818;50.860;4.648;2022-12-18T17:13:51;30.08;;;12.30;;